Time;durP1;ratioP1;P1;durP2;ratioP2;P2;SDS_P1;SDS_P2;PMS_P1;PMS_P2;Temp;Humidity;BMP_temperature;BMP_pressure;BME280_temperature;BME280_humidity;BME280_pressure;Samples;Min_cycle;Max_cycle;Signal;HPM_P1;HPM_P2
2022/09/12 00:01:25;;;;;;;;;14.00;13.00;;;;;18.17;100.00;100814.09;4869497;29;47895;-83
2022/09/12 00:03:54;;;;;;;;;17.33;17.33;;;;;18.21;100.00;100820.31;4871354;29;45448;-83
2022/09/12 00:06:25;;;;;;;;;16.67;12.33;;;;;18.18;100.00;100821.25;4875094;29;45499;-83
2022/09/12 00:08:54;;;;;;;;;15.33;14.00;;;;;18.16;100.00;100815.91;4872900;29;45547;-83
2022/09/12 00:11:20;;;;;;;;;16.67;16.67;;;;;18.14;100.00;100812.34;4871976;29;47878;-84
2022/09/12 00:13:46;;;;;;;;;15.67;15.67;;;;;18.14;100.00;100808.78;4873849;29;45424;-83
2022/09/12 00:16:21;;;;;;;;;13.00;12.00;;;;;18.12;100.00;100806.09;4873507;29;44774;-83
2022/09/12 00:18:47;;;;;;;;;17.33;17.00;;;;;18.06;100.00;100795.44;4873042;29;45427;-84
2022/09/12 00:21:13;;;;;;;;;18.33;18.33;;;;;18.04;100.00;100802.63;4873412;29;45352;-83
2022/09/12 00:23:39;;;;;;;;;14.33;13.00;;;;;18.01;100.00;100789.22;4872869;29;44772;-84
2022/09/12 00:26:06;;;;;;;;;16.00;16.00;;;;;18.04;100.00;100794.56;4873865;29;44803;-83
2022/09/12 00:28:34;;;;;;;;;14.67;14.67;;;;;17.99;100.00;100785.66;4872631;29;45496;-84
2022/09/12 00:31:07;;;;;;;;;19.00;14.67;;;;;18.02;100.00;100788.31;4857109;29;48307;-84
2022/09/12 00:33:33;;;;;;;;;17.00;17.00;;;;;18.00;100.00;100784.75;4873181;29;45510;-83
2022/09/12 00:36:02;;;;;;;;;17.33;15.67;;;;;17.99;100.00;100788.34;4875833;29;44895;-83
2022/09/12 00:38:28;;;;;;;;;16.67;15.67;;;;;17.93;100.00;100773.19;4874949;29;45365;-83
2022/09/12 00:40:53;;;;;;;;;13.67;12.33;;;;;17.99;100.00;100766.81;4873557;29;45926;-84
2022/09/12 00:43:40;;;;;;;;;19.00;15.67;;;;;17.99;100.00;100772.19;4872775;29;45845;-83
2022/09/12 00:46:35;;;;;;;;;13.00;12.33;;;;;17.97;100.00;100765.97;4874030;29;45415;-83
2022/09/12 00:49:21;;;;;;;;;19.00;17.00;;;;;17.97;100.00;100763.25;4874459;29;45405;-83
2022/09/12 00:52:02;;;;;;;;;15.00;15.00;;;;;17.92;100.00;100757.09;4851234;29;47042;-83
2022/09/12 00:54:34;;;;;;;;;14.67;14.67;;;;;17.93;100.00;100762.41;4857832;29;45398;-84
2022/09/12 00:57:05;;;;;;;;;17.00;15.67;;;;;17.91;100.00;100758.88;4874060;29;45476;-84
2022/09/12 00:59:36;;;;;;;;;18.00;16.67;;;;;17.90;100.00;100756.22;4872885;29;45410;-84
2022/09/12 01:02:02;;;;;;;;;14.33;13.67;;;;;17.87;100.00;100762.53;4872448;29;47369;-83
2022/09/12 01:04:29;;;;;;;;;17.00;16.00;;;;;17.85;100.00;100758.09;4873923;29;45394;-83
2022/09/12 01:06:57;;;;;;;;;17.00;17.00;;;;;17.82;100.00;100761.69;4873548;29;45414;-83
2022/09/12 01:09:24;;;;;;;;;16.00;13.67;;;;;17.85;100.00;100763.47;4872576;29;45461;-83
2022/09/12 01:11:51;;;;;;;;;17.00;17.00;;;;;17.84;100.00;100761.69;4872670;29;47085;-84
2022/09/12 01:14:19;;;;;;;;;17.33;15.33;;;;;17.80;100.00;100750.94;4871609;29;44770;-84
2022/09/12 01:16:48;;;;;;;;;17.00;16.00;;;;;17.79;100.00;100754.56;4872761;29;45418;-83
2022/09/12 01:19:32;;;;;;;;;22.00;20.00;;;;;17.82;100.00;100752.75;4870692;29;45463;-83
2022/09/12 01:22:22;;;;;;;;;17.33;17.33;;;;;17.80;100.00;100747.38;4872847;29;46056;-83
2022/09/12 01:25:06;;;;;;;;;16.33;16.33;;;;;17.74;100.00;100740.28;4871263;29;44820;-84
2022/09/12 01:28:01;;;;;;;;;16.00;15.00;;;;;17.77;100.00;100742.94;4870937;29;45483;-83
2022/09/12 01:31:00;;;;;;;;;19.00;17.00;;;;;17.76;100.00;100733.06;4871053;29;44852;-83
2022/09/12 01:33:44;;;;;;;;;19.00;19.00;;;;;17.73;100.00;100735.81;4870403;29;45282;-83
2022/09/12 01:36:18;;;;;;;;;24.00;23.00;;;;;17.68;100.00;100729.63;4869545;29;45404;-83
2022/09/12 01:38:53;;;;;;;;;28.00;25.67;;;;;17.69;100.00;100726.00;4870400;29;45214;-83
2022/09/12 01:41:31;;;;;;;;;24.67;22.33;;;;;17.70;100.00;100729.59;4870031;29;45378;-83
2022/09/12 01:44:14;;;;;;;;;31.67;28.00;;;;;17.69;100.00;100742.13;4868386;29;47886;-84
2022/09/12 01:46:54;;;;;;;;;26.33;25.33;;;;;17.66;100.00;100728.75;4870714;29;45647;-83
2022/09/12 01:49:26;;;;;;;;;32.67;28.33;;;;;17.63;100.00;100726.09;4869796;29;45477;-83
2022/09/12 01:51:54;;;;;;;;;25.33;25.33;;;;;17.65;100.00;100724.25;4868677;29;45531;-83
2022/09/12 01:54:26;;;;;;;;;23.33;21.33;;;;;17.65;100.00;100728.75;4868971;29;47024;-84
2022/09/12 01:56:57;;;;;;;;;20.67;20.67;;;;;17.59;100.00;100719.91;4868747;29;45627;-84
2022/09/12 01:59:46;;;;;;;;;22.00;21.67;;;;;17.61;100.00;100727.91;4870130;29;45481;-84
2022/09/12 02:02:35;;;;;;;;;21.00;20.00;;;;;17.55;100.00;100720.84;4870847;29;45394;-84
2022/09/12 02:05:13;;;;;;;;;21.00;21.00;;;;;17.55;100.00;100717.25;4870000;29;46137;-84
2022/09/12 02:08:09;;;;;;;;;18.00;15.67;;;;;17.54;100.00;100716.38;4869368;29;45329;-84
2022/09/12 02:10:52;;;;;;;;;17.00;15.00;;;;;17.50;100.00;100722.72;4871368;29;44783;-83
2022/09/12 02:13:33;;;;;;;;;20.33;17.67;;;;;17.49;100.00;100722.72;4870330;29;45392;-84
2022/09/12 02:16:05;;;;;;;;;18.67;17.00;;;;;17.48;100.00;100721.84;4852784;29;47065;-84
2022/09/12 02:18:32;;;;;;;;;16.33;12.67;;;;;17.46;100.00;100718.28;4850518;29;45779;-83
2022/09/12 02:21:00;;;;;;;;;18.00;17.00;;;;;17.43;100.00;100714.75;4852224;29;45521;-83
2022/09/12 02:23:30;;;;;;;;;17.67;17.67;;;;;17.44;100.00;100708.47;4852659;29;45420;-83
2022/09/12 02:26:18;;;;;;;;;15.67;15.67;;;;;17.39;100.00;100706.75;4850871;29;47907;-84
2022/09/12 02:28:44;;;;;;;;;18.00;17.00;;;;;17.40;100.00;100705.81;4852534;29;44838;-83
2022/09/12 02:31:31;;;;;;;;;16.00;14.33;;;;;17.40;100.00;100697.75;4852515;29;44941;-84
2022/09/12 02:34:08;;;;;;;;;16.00;16.00;;;;;17.39;100.00;100701.38;4850066;29;45413;-84
2022/09/12 02:36:50;;;;;;;;;14.00;12.33;;;;;17.37;100.00;100695.13;4849813;29;46979;-83
2022/09/12 02:39:20;;;;;;;;;14.67;14.67;;;;;17.36;100.00;100700.53;4849786;29;45353;-83
2022/09/12 02:42:01;;;;;;;;;17.67;16.67;;;;;17.33;100.00;100696.09;4850251;29;45563;-83
2022/09/12 02:44:28;;;;;;;;;19.67;16.33;;;;;17.34;100.00;100695.16;4850836;29;45276;-83
2022/09/12 02:47:22;;;;;;;;;16.00;16.00;;;;;17.33;100.00;100690.72;4851606;29;45670;-83
2022/09/12 02:49:48;;;;;;;;;15.67;14.67;;;;;17.32;100.00;100685.34;4813375;29;45772;-83
2022/09/12 02:52:14;;;;;;;;;15.00;13.67;;;;;17.30;100.00;100687.16;4813510;29;45471;-83
2022/09/12 02:54:40;;;;;;;;;15.33;15.00;;;;;17.27;100.00;100674.66;4813457;29;45374;-83
2022/09/12 02:57:18;;;;;;;;;17.67;15.00;;;;;17.27;100.00;100674.66;4797140;29;47976;-83
2022/09/12 02:59:45;;;;;;;;;19.33;17.33;;;;;17.23;100.00;100670.25;4813678;29;45670;-84
2022/09/12 03:02:40;;;;;;;;;14.67;14.33;;;;;17.24;100.00;100674.69;4813855;29;45441;-83
2022/09/12 03:05:24;;;;;;;;;19.00;17.00;;;;;17.21;100.00;100669.38;4814801;29;44920;-82
2022/09/12 03:08:05;;;;;;;;;17.00;17.00;;;;;17.23;100.00;100670.25;4813738;29;46594;-84
2022/09/12 03:10:50;;;;;;;;;17.33;16.00;;;;;17.22;100.00;100667.56;4813655;29;45536;-83
2022/09/12 03:13:53;;;;;;;;;15.67;14.67;;;;;17.20;100.00;100662.22;4813322;29;45504;-83
2022/09/12 03:16:43;;;;;;;;;14.00;13.33;;;;;17.18;100.00;100658.66;4813710;29;44803;-84
2022/09/12 03:19:37;;;;;;;;;17.67;16.67;;;;;17.18;100.00;100658.66;4812901;29;45490;-83
2022/09/12 03:22:05;;;;;;;;;17.33;16.33;;;;;17.18;100.00;100664.03;4812352;29;45524;-83
2022/09/12 03:24:37;;;;;;;;;13.67;13.67;;;;;17.16;100.00;100652.44;4812797;29;45523;-83
2022/09/12 03:27:21;;;;;;;;;21.00;15.33;;;;;17.14;100.00;100657.81;4836437;29;45332;-83
2022/09/12 03:29:47;;;;;;;;;16.67;16.33;;;;;17.11;100.00;100649.81;4849596;29;47070;-83
2022/09/12 03:32:13;;;;;;;;;17.33;17.33;;;;;17.13;100.00;100649.81;4852237;29;45477;-83
2022/09/12 03:34:39;;;;;;;;;19.67;18.33;;;;;17.10;100.00;100644.44;4852396;29;45473;-83
2022/09/12 03:37:05;;;;;;;;;10.67;10.67;;;;;17.09;100.00;100650.75;4849953;29;45444;-84
2022/09/12 03:39:30;;;;;;;;;21.00;19.00;;;;;17.10;100.00;100647.13;4848893;29;46231;-84
2022/09/12 03:41:56;;;;;;;;;16.33;14.33;;;;;17.07;100.00;100639.13;4849642;29;45388;-84
2022/09/12 03:44:22;;;;;;;;;15.67;14.00;;;;;17.04;100.00;100639.16;4850300;29;45440;-83
2022/09/12 03:46:47;;;;;;;;;18.67;15.00;;;;;16.98;100.00;100632.06;4848350;29;45782;-83
2022/09/12 03:49:13;;;;;;;;;19.00;18.00;;;;;16.99;100.00;100629.38;4848809;29;47172;-83
2022/09/12 03:51:39;;;;;;;;;15.67;13.33;;;;;17.01;100.00;100632.03;4849293;29;45361;-83
2022/09/12 03:54:05;;;;;;;;;18.00;16.33;;;;;16.97;100.00;100631.19;4848263;29;45575;-83
2022/09/12 03:56:31;;;;;;;;;16.00;15.67;;;;;17.03;100.00;100645.44;4848582;29;45492;-83
2022/09/12 03:58:56;;;;;;;;;21.33;18.00;;;;;16.98;100.00;100638.31;4848964;29;45987;-83
2022/09/12 04:01:22;;;;;;;;;21.33;16.33;;;;;17.06;100.00;100650.78;4849352;29;45460;-83
2022/09/12 04:03:51;;;;;;;;;17.00;15.33;;;;;17.05;100.00;100649.00;4849632;29;45451;-83
2022/09/12 04:06:19;;;;;;;;;16.00;16.00;;;;;17.03;100.00;100653.50;4849074;29;44843;-83
2022/09/12 04:08:49;;;;;;;;;20.00;16.00;;;;;16.98;100.00;100638.31;4849314;29;45344;-84
2022/09/12 04:11:15;;;;;;;;;17.33;16.67;;;;;17.06;100.00;100653.47;4849573;29;45460;-84
2022/09/12 04:13:43;;;;;;;;;21.33;18.00;;;;;17.05;100.00;100652.59;4832792;29;45496;-84
2022/09/12 04:16:10;;;;;;;;;16.67;15.33;;;;;17.07;100.00;100656.13;4865897;29;45428;-83
2022/09/12 04:18:36;;;;;;;;;18.00;17.00;;;;;17.05;100.00;100662.41;4867685;29;45512;-83
2022/09/12 04:21:07;;;;;;;;;19.33;19.33;;;;;17.05;100.00;100662.41;4867350;29;45407;-82
2022/09/12 04:23:33;;;;;;;;;18.00;16.33;;;;;16.99;100.00;100655.38;4868526;29;45433;-83
2022/09/12 04:26:00;;;;;;;;;16.00;16.00;;;;;16.94;100.00;100639.28;4868926;29;45786;-83
2022/09/12 04:28:31;;;;;;;;;20.00;19.33;;;;;17.00;100.00;100649.06;4867052;29;46151;-82
2022/09/12 04:31:01;;;;;;;;;18.67;18.33;;;;;17.00;100.00;100649.06;4868692;29;44742;-83
2022/09/12 04:33:27;;;;;;;;;21.00;18.33;;;;;16.99;100.00;100653.56;4867275;29;45488;-83
2022/09/12 04:35:52;;;;;;;;;17.67;17.00;;;;;16.93;100.00;100642.00;4866167;29;45403;-84
2022/09/12 04:38:17;;;;;;;;;17.33;16.00;;;;;16.93;100.00;100650.94;4866870;29;47531;-83
2022/09/12 04:40:43;;;;;;;;;18.67;17.00;;;;;16.87;100.00;100648.34;4867898;29;45545;-84
2022/09/12 04:43:08;;;;;;;;;18.67;18.00;;;;;16.82;100.00;100635.88;4868266;29;45410;-83
2022/09/12 04:45:34;;;;;;;;;17.00;17.00;;;;;16.85;100.00;100647.47;4867126;29;45226;-83
2022/09/12 04:47:59;;;;;;;;;18.67;18.00;;;;;16.82;100.00;100631.38;4868903;29;45933;-83
2022/09/12 04:50:25;;;;;;;;;20.00;18.67;;;;;16.81;100.00;100637.69;4869499;29;45556;-83
2022/09/12 04:52:52;;;;;;;;;17.00;16.00;;;;;16.70;100.00;100615.41;4872561;29;45413;-83
2022/09/12 04:55:18;;;;;;;;;15.67;15.33;;;;;16.78;100.00;100633.22;4869350;29;45815;-84
2022/09/12 04:57:44;;;;;;;;;15.33;15.33;;;;;16.74;100.00;100631.50;4869870;29;46939;-84
2022/09/12 05:00:13;;;;;;;;;16.00;16.00;;;;;16.71;100.00;100625.25;4871063;29;45272;-84
2022/09/12 05:02:40;;;;;;;;;16.33;15.00;;;;;16.75;100.00;100627.00;4869769;29;45614;-84
2022/09/12 05:05:06;;;;;;;;;17.00;14.67;;;;;16.75;100.00;100618.94;4869549;29;45426;-83
2022/09/12 05:07:31;;;;;;;;;18.00;17.00;;;;;16.72;100.00;100616.28;4870611;29;46312;-83
2022/09/12 05:09:57;;;;;;;;;17.00;17.00;;;;;16.69;100.00;100610.97;4871553;29;45416;-82
2022/09/12 05:12:22;;;;;;;;;22.00;17.00;;;;;16.70;100.00;100628.84;4872680;29;45411;-83
2022/09/12 05:14:48;;;;;;;;;19.00;16.33;;;;;16.69;100.00;100630.63;4872168;29;44823;-83
2022/09/12 05:17:13;;;;;;;;;17.67;17.67;;;;;16.69;100.00;100630.63;4870423;29;48502;-83
2022/09/12 05:19:39;;;;;;;;;15.33;14.67;;;;;16.67;100.00;100618.16;4871637;29;45397;-84
2022/09/12 05:22:05;;;;;;;;;17.33;15.00;;;;;16.62;100.00;100612.81;4870567;29;44753;-83
2022/09/12 05:24:31;;;;;;;;;18.00;15.67;;;;;16.65;100.00;100625.34;4871173;29;44859;-83
2022/09/12 05:26:57;;;;;;;;;21.33;17.00;;;;;16.63;100.00;100628.03;4854791;29;47053;-83
2022/09/12 05:29:24;;;;;;;;;19.00;17.67;;;;;16.67;100.00;100628.91;4870624;29;45409;-84
2022/09/12 05:31:50;;;;;;;;;17.00;15.00;;;;;16.67;100.00;100628.91;4856518;29;45391;-83
2022/09/12 05:34:16;;;;;;;;;18.00;17.33;;;;;16.69;100.00;100629.75;4855338;29;45409;-83
2022/09/12 05:36:42;;;;;;;;;17.67;17.67;;;;;16.70;100.00;100623.47;4871272;29;47198;-83
2022/09/12 05:39:07;;;;;;;;;21.00;20.67;;;;;16.72;100.00;100613.59;4873925;29;45372;-84
2022/09/12 05:41:34;;;;;;;;;20.00;17.00;;;;;16.74;100.00;100615.38;4872376;29;44848;-82
2022/09/12 05:44:03;;;;;;;;;16.67;15.00;;;;;16.77;100.00;100619.81;4872836;29;45371;-83
2022/09/12 05:46:31;;;;;;;;;19.67;16.00;;;;;16.77;100.00;100620.69;4871780;29;45850;-83
2022/09/12 05:49:02;;;;;;;;;18.33;16.00;;;;;16.77;100.00;100623.38;4871605;29;45423;-83
2022/09/12 05:51:33;;;;;;;;;17.00;17.00;;;;;16.80;100.00;100622.44;4874052;29;45555;-83
2022/09/12 05:54:00;;;;;;;;;22.33;18.33;;;;;16.86;100.00;100625.06;4872868;29;45689;-83
2022/09/12 05:56:32;;;;;;;;;15.33;15.33;;;;;16.93;100.00;100625.91;4871314;29;47226;-82
2022/09/12 05:59:01;;;;;;;;;15.67;15.67;;;;;17.03;100.00;100629.31;4871842;29;45773;-83
2022/09/12 06:01:31;;;;;;;;;16.00;15.00;;;;;17.04;100.00;100613.19;4872181;29;44758;-82
2022/09/12 06:04:02;;;;;;;;;15.67;15.67;;;;;17.16;100.00;100618.38;4872794;29;45351;-84
2022/09/12 06:06:29;;;;;;;;;16.67;15.33;;;;;17.22;100.00;100621.88;4871850;29;47460;-84
2022/09/12 06:09:02;;;;;;;;;18.00;14.67;;;;;17.27;100.00;100620.91;4856299;29;45499;-84
2022/09/12 06:11:32;;;;;;;;;21.33;16.00;;;;;17.36;100.00;100631.50;4873347;29;45458;-84
2022/09/12 06:13:59;;;;;;;;;15.67;15.00;;;;;17.47;100.00;100635.81;4874674;29;44761;-84
2022/09/12 06:16:26;;;;;;;;;18.33;15.67;;;;;17.55;100.00;100639.28;4875266;29;46203;-84
2022/09/12 06:18:54;;;;;;;;;19.67;17.67;;;;;17.62;100.00;100634.72;4873825;29;45904;-84
2022/09/12 06:21:21;;;;;;;;;16.33;15.67;;;;;17.76;100.00;100638.03;4875475;29;44814;-84
2022/09/12 06:23:48;;;;;;;;;15.33;15.33;;;;;17.87;100.00;100638.75;4873780;29;45387;-83
2022/09/12 06:26:16;;;;;;;;;17.67;17.33;;;;;17.93;100.00;100627.88;4872166;29;46907;-82
2022/09/12 06:28:44;;;;;;;;;18.33;18.33;;;;;18.08;100.00;100647.38;4873235;29;45388;-85
2022/09/12 06:31:15;;;;;;;;;17.00;15.00;;;;;18.14;100.00;100648.16;4872615;29;44854;-84
2022/09/12 06:33:44;;;;;;;;;17.33;16.67;;;;;18.12;100.00;100628.44;4872230;29;45818;-86
2022/09/12 06:36:14;;;;;;;;;18.33;16.00;;;;;18.18;100.00;100647.19;4877475;29;45324;-84
2022/09/12 06:38:40;;;;;;;;;20.00;16.00;;;;;18.17;100.00;100650.78;4872140;29;44848;-84
2022/09/12 06:41:11;;;;;;;;;18.67;17.00;;;;;18.17;100.00;100650.78;4875286;29;44845;-85
2022/09/12 06:43:37;;;;;;;;;16.00;15.67;;;;;18.19;100.00;100651.63;4872516;29;44906;-85
2022/09/12 06:46:04;;;;;;;;;21.67;20.00;;;;;18.28;100.00;100652.38;4874824;29;48220;-86
2022/09/12 06:48:42;;;;;;;;;18.00;18.00;;;;;18.37;100.00;100644.13;4885081;29;45231;-86
2022/09/12 06:51:12;;;;;;;;;21.67;18.33;;;;;18.38;100.00;100624.38;4855628;29;45399;-86
2022/09/12 06:53:38;;;;;;;;;16.00;16.00;;;;;18.50;100.00;100634.91;4856662;29;45499;-86
2022/09/12 06:56:15;;;;;;;;;18.33;16.33;;;;;18.60;100.00;100624.78;4871379;29;45497;-84
2022/09/12 06:58:42;;;;;;;;;20.33;18.00;;;;;18.66;100.00;100627.34;4875011;29;44966;-84
2022/09/12 07:01:09;;;;;;;;;13.67;13.67;;;;;18.76;100.00;100631.66;4873957;29;44807;-84
2022/09/12 07:04:35;;;;;;;;;13.33;13.33;;;;;18.82;100.00;100637.84;4872977;29;44833;-85
2022/09/12 07:07:06;;;;;;;;;18.00;16.67;;;;;18.90;100.00;100634.06;4878901;29;44991;-84
2022/09/12 07:10:28;;;;;;;;;;;;;;;;;;;;;
2022/09/12 07:12:57;;;;;;;;;16.67;15.67;;;;;18.88;100.00;100608.06;4874649;29;68020;-84
2022/09/12 07:15:26;;;;;;;;;18.00;17.00;;;;;19.17;100.00;100632.56;4867687;29;45588;-84
2022/09/12 07:17:53;;;;;;;;;17.33;17.33;;;;;19.29;100.00;100630.50;4854826;29;45963;-84
2022/09/12 07:20:19;;;;;;;;;16.67;16.33;;;;;19.27;100.00;100614.38;4853856;29;45289;-86
2022/09/12 07:22:48;;;;;;;;;25.33;20.33;;;;;19.42;100.00;100618.50;4837306;29;44883;-84
2022/09/12 07:25:14;;;;;;;;;18.00;18.00;;;;;19.42;100.00;100609.53;4839671;29;45427;-84
2022/09/12 07:27:39;;;;;;;;;14.00;14.00;;;;;19.53;100.00;100611.03;4853452;29;45433;-85
2022/09/12 07:30:12;;;;;;;;;18.00;17.00;;;;;19.80;100.00;100637.41;4840654;29;45367;-85
2022/09/12 07:32:42;;;;;;;;;17.00;17.00;;;;;19.81;100.00;100620.25;4854989;29;45414;-86
2022/09/12 07:35:23;;;;;;;;;20.00;18.33;;;;;19.86;100.00;100621.91;4854747;29;45498;-86
2022/09/12 07:37:50;;;;;;;;;18.67;17.33;;;;;20.07;100.00;100636.66;4854453;29;47830;-85
2022/09/12 07:40:31;;;;;;;;;22.67;21.00;;;;;19.90;100.00;100591.22;4838848;29;45404;-84
2022/09/12 07:42:56;;;;;;;;;16.33;15.00;;;;;20.04;100.00;100609.75;4851560;29;45632;-83
2022/09/12 07:45:25;;;;;;;;;16.00;14.00;;;;;20.16;100.00;100619.34;4852157;29;45039;-85
2022/09/12 07:48:29;;;;;;;;;20.67;19.33;;;;;20.22;100.00;100631.75;4848726;29;45478;-85
2022/09/12 07:51:06;;;;;;;;;18.67;16.67;;;;;20.12;100.00;100602.31;4842346;29;44824;-85
2022/09/12 07:53:39;;;;;;;;;17.67;17.67;;;;;20.13;100.00;100581.59;4839470;29;44935;-84
2022/09/12 07:56:43;;;;;;;;;;;;;;;;;;;;;
2022/09/12 07:59:44;;;;;;;;;16.33;14.67;;;;;20.62;100.00;100634.25;4855788;29;73973;-85
2022/09/12 08:02:13;;;;;;;;;15.67;14.33;;;;;20.53;100.00;100613.75;4839324;29;44971;-84
2022/09/12 08:04:48;;;;;;;;;13.67;12.67;;;;;20.48;100.00;100577.91;4839391;29;45508;-84
2022/09/12 08:07:15;;;;;;;;;17.00;16.67;;;;;20.49;100.00;100563.44;4852202;29;45683;-86
2022/09/12 08:09:43;;;;;;;;;17.33;14.33;;;;;20.54;100.00;100577.72;4838155;29;45493;-85
2022/09/12 08:12:38;;;;;;;;;13.00;13.00;;;;;20.71;100.00;100611.50;4855186;29;45288;-86
2022/09/12 08:15:15;;;;;;;;;18.67;17.33;;;;;20.58;100.00;100590.25;4860557;29;45451;-85
2022/09/12 08:17:52;;;;;;;;;18.00;17.33;;;;;20.61;100.00;100599.19;4858245;29;45494;-84
2022/09/12 08:20:29;;;;;;;;;17.00;16.00;;;;;20.63;100.00;100586.50;4874795;29;45756;-85
2022/09/12 08:23:33;;;;;;;;;;;;;;;;;;;;;
2022/09/12 08:26:02;;;;;;;;;19.67;17.67;;;;;20.85;100.00;100582.22;4874820;29;69217;-85
2022/09/12 08:28:30;;;;;;;;;17.33;16.00;;;;;21.26;100.00;100627.81;4881789;29;45319;-85
2022/09/12 08:31:58;;;;;;;;;16.00;16.00;;;;;21.16;100.00;100608.28;4876380;29;45257;-85
2022/09/12 08:35:36;;;;;;;;;;;;;;;;;;;;;
2022/09/12 08:48:20;;;;;;;;;15.67;15.00;;;;;21.31;100.00;100591.56;4763560;29;45493;-86
2022/09/12 08:50:55;;;;;;;;;13.67;12.67;;;;;21.51;100.00;100608.97;4767177;29;45110;-86
2022/09/12 08:56:59;;;;;;;;;14.67;14.67;;;;;21.44;99.12;100588.50;4765292;29;45534;-85
2022/09/12 08:59:30;;;;;;;;;12.67;12.00;;;;;21.48;99.46;100592.88;4745733;29;44959;-86
2022/09/12 09:02:31;;;;;;;;;13.75;13.75;;;;;21.68;97.92;100622.84;4755116;29;44969;-86
2022/09/12 09:05:47;;;;;;;;;14.33;14.33;;;;;21.74;98.49;100621.75;4772052;29;45052;-86
2022/09/12 09:08:50;;;;;;;;;8.00;7.00;;;;;21.77;95.32;100617.13;4784052;29;45760;-86
2022/09/12 09:11:54;;;;;;;;;;;;;;;;;;;;;
2022/09/12 09:14:50;;;;;;;;;11.75;11.50;;;;;21.77;93.35;100609.00;4832870;29;69145;-86
2022/09/12 09:17:50;;;;;;;;;;;;;;;;;;;;;
2022/09/12 09:24:16;;;;;;;;;21.33;21.33;;;;;21.74;94.50;100573.03;4846142;29;45290;-85
2022/09/12 09:26:56;;;;;;;;;13.00;12.33;;;;;21.87;95.32;100571.63;4783981;29;45490;-86
2022/09/12 09:29:58;;;;;;;;;11.75;11.50;;;;;22.04;89.47;100571.06;4778603;29;45434;-85
2022/09/12 09:33:05;;;;;;;;;;;;;;;;;;;;;
2022/09/12 09:36:21;;;;;;;;;13.33;13.33;;;;;22.37;87.58;100584.31;4786317;29;72070;-85
2022/09/12 09:39:37;;;;;;;;;11.00;11.00;;;;;22.48;90.07;100582.09;4790194;29;44966;-85
2022/09/12 09:42:46;;;;;;;;;15.33;12.67;;;;;22.74;87.73;100581.09;4781869;29;45588;-85
2022/09/12 09:45:27;;;;;;;;;9.00;9.00;;;;;22.74;84.46;100566.66;4761260;29;45122;-86
2022/09/12 09:48:48;;;;;;;;;9.67;9.67;;;;;23.05;85.12;100584.47;4765391;29;45501;-86
2022/09/12 09:51:41;;;;;;;;;12.00;10.33;;;;;23.26;80.76;100579.97;4729660;29;44987;-86
2022/09/12 09:54:20;;;;;;;;;9.00;9.00;;;;;23.23;84.94;100545.72;4732469;30;45002;-85
2022/09/12 09:57:07;;;;;;;;;12.67;10.67;;;;;23.34;84.87;100531.69;4734114;30;46879;-86
2022/09/12 10:00:14;;;;;;;;;9.50;9.50;;;;;23.73;81.71;100564.41;4729429;29;45537;-85
2022/09/12 10:02:59;;;;;;;;;8.33;8.33;;;;;23.79;79.30;100568.69;4765410;29;44909;-86
2022/09/12 10:05:28;;;;;;;;;8.00;8.00;;;;;23.74;83.69;100539.00;4781081;29;45383;-86
2022/09/12 10:08:27;;;;;;;;;6.75;6.00;;;;;23.95;74.76;100547.19;4835072;29;46519;-86
2022/09/12 10:11:38;;;;;;;;;8.25;6.75;;;;;23.92;77.93;100552.78;4768013;29;45527;-85
2022/09/12 10:14:54;;;;;;;;;7.00;7.00;;;;;23.90;80.22;100562.81;4788795;29;45420;-87
2022/09/12 10:18:51;;;;;;;;;6.00;6.00;;;;;23.83;77.70;100553.16;4789153;29;44922;-87
2022/09/12 10:21:04;;;;;;;;;;;;;;;;;;;;;
2022/09/12 10:27:09;;;;;;;;;7.00;7.00;;;;;24.01;78.51;100546.91;4795987;29;44915;-86
2022/09/12 10:30:23;;;;;;;;;;;;;;;;;;;;;
2022/09/12 10:33:02;;;;;;;;;8.00;6.00;;;;;23.99;72.59;100516.22;4763444;29;74657;-87
2022/09/12 10:35:33;;;;;;;;;5.25;5.25;;;;;24.20;74.91;100555.13;4736336;30;44862;-87
2022/09/12 10:38:15;;;;;;;;;6.50;5.50;;;;;24.11;74.36;100531.06;4744115;29;44940;-87
2022/09/12 10:40:44;;;;;;;;;6.00;6.00;;;;;23.84;75.66;100498.78;4748910;30;44942;-87
2022/09/12 10:43:29;;;;;;;;;7.00;7.00;;;;;24.20;76.07;100548.78;4746111;29;45578;-87
2022/09/12 10:46:18;;;;;;;;;5.00;4.25;;;;;24.15;71.43;100532.69;4732295;30;45552;-87
2022/09/12 10:49:10;;;;;;;;;6.33;6.00;;;;;23.99;69.60;100497.19;4795154;29;45264;-87
2022/09/12 10:55:14;;;;;;;;;4.25;2.75;;;;;24.43;68.76;100526.00;4771073;29;45049;-84
2022/09/12 11:05:04;;;;;;;;;5.00;5.00;;;;;24.89;63.67;100519.25;4777995;29;44740;-83
2022/09/12 11:07:47;;;;;;;;;3.00;3.00;;;;;24.94;64.21;100522.66;4768091;29;45581;-86
2022/09/12 11:10:33;;;;;;;;;6.50;4.00;;;;;25.00;63.55;100509.69;4792347;29;45533;-87
2022/09/12 11:13:32;;;;;;;;;4.00;4.00;;;;;25.17;64.81;100536.94;4790938;29;45058;-84
2022/09/12 11:16:51;;;;;;;;;4.33;4.33;;;;;24.97;64.71;100518.03;4791695;29;44885;-83
2022/09/12 11:23:25;;;;;;;;;3.00;3.00;;;;;24.97;62.24;100523.47;4808361;29;45828;-85
2022/09/12 11:25:56;;;;;;;;;3.67;3.67;;;;;24.98;62.41;100528.81;4800200;29;45417;-87
2022/09/12 11:28:42;;;;;;;;;5.00;5.00;;;;;24.83;62.42;100497.81;4803779;29;45305;-87
2022/09/12 11:35:00;;;;;;;;;3.00;1.75;;;;;25.02;60.30;100505.06;4809678;29;45950;-87
2022/09/12 11:38:08;;;;;;;;;2.00;2.00;;;;;25.04;60.73;100494.97;4824853;29;45462;-87
2022/09/12 11:40:54;;;;;;;;;2.00;2.00;;;;;25.03;60.96;100495.94;4878150;29;44879;-85
2022/09/12 11:44:02;;;;;;;;;4.25;3.75;;;;;25.09;61.86;100503.81;4877367;29;46148;-86
2022/09/12 11:47:07;;;;;;;;;2.50;2.50;;;;;25.05;61.83;100483.16;4874788;28;45774;-86
2022/09/12 11:49:40;;;;;;;;;2.50;2.50;;;;;25.12;57.96;100470.97;4853729;29;45437;-86
2022/09/12 11:52:23;;;;;;;;;3.50;3.00;;;;;25.28;59.90;100471.97;4878633;29;46483;-86
2022/09/12 11:54:58;;;;;;;;;4.00;4.00;;;;;25.32;59.22;100473.59;4863133;29;47189;-84
2022/09/12 11:57:24;;;;;;;;;3.75;3.75;;;;;25.33;58.07;100472.63;4870303;29;45455;-87
2022/09/12 12:00:16;;;;;;;;;2.25;2.25;;;;;25.40;59.05;100477.75;4869507;29;45015;-86
2022/09/12 12:03:01;;;;;;;;;2.75;2.75;;;;;25.39;58.83;100454.22;4866939;29;45383;-83
2022/09/12 12:05:51;;;;;;;;;2.25;2.25;;;;;25.33;55.60;100441.81;4867203;29;47566;-85
2022/09/12 12:08:17;;;;;;;;;2.00;2.00;;;;;25.43;55.53;100469.41;4872070;29;45527;-85
2022/09/12 12:10:47;;;;;;;;;3.25;3.25;;;;;25.49;58.26;100463.66;4871840;29;45750;-85
2022/09/12 12:13:44;;;;;;;;;3.75;3.75;;;;;25.42;58.16;100448.63;4871447;29;45625;-85
2022/09/12 12:16:32;;;;;;;;;2.75;2.75;;;;;25.45;59.16;100445.72;4871897;29;46788;-85
2022/09/12 12:19:09;;;;;;;;;4.50;4.50;;;;;25.41;58.05;100444.13;4876552;29;46140;-84
2022/09/12 12:22:27;;;;;;;;;3.00;3.00;;;;;25.51;57.20;100464.44;4880118;29;44817;-84
2022/09/12 12:25:20;;;;;;;;;3.00;3.00;;;;;25.54;58.24;100469.75;4834575;29;44903;-85
2022/09/12 12:28:05;;;;;;;;;4.00;4.00;;;;;25.60;58.78;100472.16;4817390;29;47111;-83
2022/09/12 12:30:30;;;;;;;;;4.00;4.00;;;;;25.50;57.96;100455.41;4816366;29;46783;-84
2022/09/12 12:33:25;;;;;;;;;2.75;2.75;;;;;25.48;57.00;100443.72;4816707;29;45034;-84
2022/09/12 12:35:59;;;;;;;;;3.00;3.00;;;;;25.67;55.91;100462.72;4792803;29;45081;-83
2022/09/12 12:38:40;;;;;;;;;2.75;2.75;;;;;25.52;55.46;100430.84;4793254;29;47051;-84
2022/09/12 12:41:19;;;;;;;;;4.25;3.75;;;;;25.70;55.34;100462.53;4778458;29;45468;-85
2022/09/12 12:43:57;;;;;;;;;3.25;3.25;;;;;25.43;55.54;100428.59;4778997;29;45238;-84
2022/09/12 12:46:27;;;;;;;;;2.00;2.00;;;;;25.36;56.98;100417.16;4781387;29;44900;-84